Time;durP1;ratioP1;P1;durP2;ratioP2;P2;SDS_P1;SDS_P2;PMS_P1;PMS_P2;Temp;Humidity;BMP_temperature;BMP_pressure;BME280_temperature;BME280_humidity;BME280_pressure;Samples;Min_cycle;Max_cycle;Signal;HPM_P1;HPM_P2
2022/06/26 00:00:02;;;;;;;6.10;4.10;;;21.80;66.50;;;;;;9184262;19;20086;-69
2022/06/26 00:03:12;;;;;;;5.88;4.38;;;21.70;66.50;;;;;;9181744;19;20084;-68
2022/06/26 00:06:20;;;;;;;5.85;4.07;;;21.70;66.60;;;;;;9182587;19;20018;-68
2022/06/26 00:09:25;;;;;;;12.88;5.15;;;21.70;66.70;;;;;;9183567;19;20018;-69
2022/06/26 00:12:30;;;;;;;5.05;4.00;;;21.60;66.70;;;;;;9178008;19;20029;-69
2022/06/26 00:15:35;;;;;;;10.60;4.47;;;21.60;66.80;;;;;;9184811;19;20460;-70
2022/06/26 00:18:41;;;;;;;8.82;4.47;;;21.60;66.80;;;;;;9181379;19;20045;-68
2022/06/26 00:21:50;;;;;;;5.22;4.30;;;21.50;66.90;;;;;;9181729;19;20029;-68
2022/06/26 00:24:55;;;;;;;7.15;4.72;;;21.50;67.00;;;;;;9182197;19;20011;-68
2022/06/26 00:28:00;;;;;;;11.95;4.88;;;21.50;67.00;;;;;;9181775;19;20510;-69
2022/06/26 00:31:05;;;;;;;7.50;4.45;;;21.40;67.00;;;;;;9179871;19;20501;-68
2022/06/26 00:34:11;;;;;;;10.80;4.80;;;21.40;67.10;;;;;;9183574;19;20026;-67
2022/06/26 00:37:18;;;;;;;8.27;4.57;;;21.40;67.20;;;;;;9184402;19;20014;-68
2022/06/26 00:40:24;;;;;;;10.00;4.72;;;21.30;67.30;;;;;;9184212;19;20506;-67
2022/06/26 00:43:29;;;;;;;5.50;4.20;;;21.30;67.30;;;;;;9182232;19;20089;-70
2022/06/26 00:46:34;;;;;;;11.32;5.07;;;21.30;67.40;;;;;;9182410;19;20015;-69
2022/06/26 00:49:44;;;;;;;10.10;5.85;;;21.30;67.40;;;;;;9181205;19;20348;-69
2022/06/26 00:52:52;;;;;;;9.98;5.55;;;21.20;67.50;;;;;;9182869;19;20483;-68
2022/06/26 00:55:57;;;;;;;9.82;5.30;;;21.20;67.70;;;;;;9182045;19;20111;-68
2022/06/26 00:59:03;;;;;;;10.88;5.30;;;21.10;67.60;;;;;;9181175;19;20060;-70
2022/06/26 01:02:09;;;;;;;7.00;5.35;;;21.10;67.80;;;;;;9181424;19;20021;-68
2022/06/26 01:05:14;;;;;;;11.05;6.28;;;21.10;67.90;;;;;;9180601;19;20022;-69
2022/06/26 01:08:22;;;;;;;9.77;7.35;;;21.00;68.00;;;;;;9181257;19;20467;-70
2022/06/26 01:11:27;;;;;;;16.13;7.72;;;21.00;68.20;;;;;;9175223;19;20360;-68
2022/06/26 01:14:33;;;;;;;18.90;9.43;;;21.00;68.30;;;;;;9179739;19;20011;-67
2022/06/26 01:17:38;;;;;;;19.25;9.77;;;21.00;68.50;;;;;;9182053;19;20028;-68
2022/06/26 01:20:53;;;;;;;26.33;11.85;;;21.00;68.70;;;;;;9180523;19;20018;-69
2022/06/26 01:24:02;;;;;;;25.30;12.73;;;21.00;69.00;;;;;;9180459;19;20022;-68
2022/06/26 01:27:09;;;;;;;17.88;12.05;;;21.00;69.40;;;;;;9182797;19;20101;-67
2022/06/26 01:30:14;;;;;;;21.05;11.90;;;21.00;69.60;;;;;;9178681;19;20484;-68
2022/06/26 01:33:20;;;;;;;16.02;11.05;;;21.00;70.00;;;;;;9179581;19;20022;-67
2022/06/26 01:36:25;;;;;;;17.40;11.95;;;21.00;70.20;;;;;;9180282;19;20043;-68
2022/06/26 01:39:33;;;;;;;18.08;12.43;;;21.00;70.50;;;;;;9179667;19;20082;-68
2022/06/26 01:42:38;;;;;;;14.40;10.80;;;21.00;70.80;;;;;;9179955;19;20356;-67
2022/06/26 01:45:44;;;;;;;19.13;12.15;;;21.00;70.80;;;;;;9180918;19;20043;-66
2022/06/26 01:48:50;;;;;;;16.75;11.63;;;21.00;71.00;;;;;;9178925;19;20090;-67
2022/06/26 01:51:56;;;;;;;14.98;10.60;;;21.00;71.10;;;;;;9180232;19;20011;-67
2022/06/26 01:55:04;;;;;;;18.90;11.43;;;21.00;71.30;;;;;;9178490;19;20511;-67
2022/06/26 01:58:12;;;;;;;15.05;11.35;;;21.00;71.50;;;;;;9179276;19;20640;-67
2022/06/26 02:01:18;;;;;;;17.15;11.73;;;21.00;71.60;;;;;;9179252;19;20026;-67
2022/06/26 02:04:24;;;;;;;16.42;10.90;;;21.00;71.70;;;;;;9177456;19;20014;-67
2022/06/26 02:07:29;;;;;;;18.52;11.77;;;21.00;71.80;;;;;;9176990;19;20014;-67
2022/06/26 02:14:01;;;;;;;20.95;11.50;;;21.00;72.20;;;;;;9179792;19;20474;-67
2022/06/26 02:17:15;;;;;;;19.85;11.48;;;21.00;72.10;;;;;;9179110;19;20629;-67
2022/06/26 02:20:20;;;;;;;14.20;10.52;;;21.00;72.80;;;;;;9180439;19;20015;-68
2022/06/26 02:23:25;;;;;;;19.13;10.20;;;21.00;72.30;;;;;;9175738;19;20021;-67
2022/06/26 02:26:33;;;;;;;14.43;10.30;;;21.00;72.50;;;;;;9173775;19;20471;-66
2022/06/26 02:29:38;;;;;;;14.52;10.43;;;21.00;72.60;;;;;;9174276;19;20026;-67
2022/06/26 02:32:43;;;;;;;16.35;10.77;;;21.00;72.60;;;;;;9173233;19;20022;-67
2022/06/26 02:35:49;;;;;;;15.40;10.27;;;21.00;72.70;;;;;;9174116;19;20022;-68
2022/06/26 02:38:55;;;;;;;15.55;10.73;;;21.00;72.80;;;;;;9175919;19;20011;-67
2022/06/26 02:42:02;;;;;;;15.80;11.40;;;21.00;72.90;;;;;;9173037;19;20014;-67
2022/06/26 02:45:09;;;;;;;15.55;11.52;;;20.90;73.10;;;;;;9172846;19;20534;-68
2022/06/26 02:48:15;;;;;;;16.58;12.23;;;21.00;73.10;;;;;;9174594;19;20025;-66
2022/06/26 02:51:20;;;;;;;18.77;11.45;;;21.00;73.20;;;;;;9172478;19;20048;-69
2022/06/26 02:54:25;;;;;;;17.85;11.23;;;20.90;73.20;;;;;;9173204;19;20022;-69
2022/06/26 02:57:32;;;;;;;16.95;11.93;;;20.90;73.30;;;;;;9173852;19;20025;-66
2022/06/26 03:00:38;;;;;;;20.90;11.95;;;20.90;73.50;;;;;;9173555;19;20054;-67
2022/06/26 03:03:43;;;;;;;16.98;11.88;;;20.90;74.20;;;;;;9171864;19;20609;-67
2022/06/26 03:06:48;;;;;;;20.33;12.40;;;20.80;73.60;;;;;;9173457;19;20037;-66
2022/06/26 03:09:54;;;;;;;19.92;11.82;;;20.80;73.70;;;;;;9171401;19;20022;-67
2022/06/26 03:13:02;;;;;;;20.83;12.25;;;20.70;73.80;;;;;;9168023;19;20022;-66
2022/06/26 03:16:07;;;;;;;17.98;11.63;;;20.80;73.90;;;;;;9173140;19;20037;-66
2022/06/26 03:19:13;;;;;;;17.48;11.70;;;20.80;73.90;;;;;;9173529;19;20046;-67
2022/06/26 03:22:18;;;;;;;17.35;10.88;;;20.70;74.00;;;;;;9180894;19;20507;-67
2022/06/26 03:25:23;;;;;;;18.05;12.00;;;20.70;74.10;;;;;;9180661;19;20029;-67
2022/06/26 03:28:30;;;;;;;17.77;11.63;;;20.70;74.10;;;;;;9182595;19;20010;-67
2022/06/26 03:31:36;;;;;;;16.88;11.27;;;20.70;74.30;;;;;;9178741;19;20077;-69
2022/06/26 03:34:42;;;;;;;17.30;10.90;;;20.70;74.20;;;;;;9180298;19;20022;-67
2022/06/26 03:37:47;;;;;;;13.57;10.02;;;20.60;74.20;;;;;;9181089;19;20479;-67
2022/06/26 03:40:52;;;;;;;14.90;10.20;;;20.60;74.30;;;;;;9181648;19;20535;-69
2022/06/26 03:44:01;;;;;;;14.25;9.85;;;20.60;74.30;;;;;;9180572;19;20677;-69
2022/06/26 03:47:06;;;;;;;17.80;9.90;;;20.60;74.50;;;;;;9178932;19;20019;-67
2022/06/26 03:50:12;;;;;;;15.60;9.98;;;20.50;74.40;;;;;;9179443;19;20030;-67
2022/06/26 03:53:26;;;;;;;13.20;9.48;;;20.50;74.50;;;;;;9179073;19;20390;-68
2022/06/26 03:56:31;;;;;;;15.10;11.07;;;20.50;74.50;;;;;;9180568;19;20660;-69
2022/06/26 03:59:39;;;;;;;13.40;9.70;;;20.40;74.40;;;;;;9179250;19;20018;-68
2022/06/26 04:02:46;;;;;;;13.43;9.77;;;20.50;74.70;;;;;;9179836;19;20010;-68
2022/06/26 04:06:01;;;;;;;15.43;10.07;;;20.40;74.50;;;;;;9177280;19;20038;-67
2022/06/26 04:09:12;;;;;;;13.27;8.63;;;20.40;74.60;;;;;;9179453;19;20015;-67
2022/06/26 04:12:17;;;;;;;11.85;8.35;;;20.40;74.60;;;;;;9172300;19;20019;-68
2022/06/26 04:15:25;;;;;;;12.35;9.20;;;20.40;74.80;;;;;;9178705;19;20478;-68
2022/06/26 04:18:30;;;;;;;14.75;8.43;;;20.30;74.80;;;;;;9179022;19;20025;-68
2022/06/26 04:21:35;;;;;;;12.80;9.02;;;20.30;74.80;;;;;;9178254;19;20107;-68
2022/06/26 04:24:45;;;;;;;14.27;9.27;;;20.20;74.80;;;;;;9182197;19;20028;-68
2022/06/26 04:27:49;;;;;;;18.17;10.75;;;20.20;75.10;;;;;;9183437;19;20026;-69
2022/06/26 04:30:57;;;;;;;15.00;9.93;;;20.20;75.10;;;;;;9179045;19;20025;-68
2022/06/26 04:34:04;;;;;;;16.70;9.77;;;20.20;75.20;;;;;;9181831;19;20042;-69
2022/06/26 04:37:09;;;;;;;16.23;8.65;;;20.10;75.10;;;;;;9182815;19;20760;-67
2022/06/26 04:40:15;;;;;;;12.80;8.60;;;20.10;75.20;;;;;;9183279;19;20451;-68
2022/06/26 04:43:20;;;;;;;12.02;7.30;;;20.10;75.30;;;;;;9181675;19;20095;-68
2022/06/26 04:46:27;;;;;;;10.90;7.28;;;20.00;75.30;;;;;;9181758;19;20014;-68
2022/06/26 04:49:35;;;;;;;8.52;6.78;;;20.00;75.50;;;;;;9180745;19;20390;-68
2022/06/26 04:52:40;;;;;;;10.90;7.18;;;20.00;75.40;;;;;;9178666;19;20130;-69
2022/06/26 04:55:45;;;;;;;10.30;6.63;;;20.00;75.50;;;;;;9180853;19;20454;-68
2022/06/26 04:58:50;;;;;;;10.27;6.90;;;19.90;75.50;;;;;;9182158;19;20730;-68
2022/06/26 05:02:00;;;;;;;9.90;6.75;;;19.90;75.60;;;;;;9178426;19;20032;-68
2022/06/26 05:05:24;;;;;;;8.98;6.82;;;19.90;75.70;;;;;;9180394;19;20736;-68
2022/06/26 05:08:34;;;;;;;10.35;7.43;;;19.90;75.80;;;;;;9182519;19;20018;-68
2022/06/26 05:11:40;;;;;;;9.93;7.70;;;19.90;75.80;;;;;;9175886;19;20345;-68
2022/06/26 05:14:45;;;;;;;11.07;7.07;;;19.90;75.80;;;;;;9179763;19;20015;-68
2022/06/26 05:17:58;;;;;;;9.65;7.30;;;19.90;75.90;;;;;;9179612;19;20409;-68
2022/06/26 05:21:03;;;;;;;12.18;7.70;;;19.90;76.10;;;;;;9180378;19;20085;-68
2022/06/26 05:24:13;;;;;;;11.85;7.68;;;19.90;76.00;;;;;;9181417;19;20014;-67
2022/06/26 05:27:22;;;;;;;9.30;7.10;;;19.90;76.10;;;;;;9180740;19;20022;-69
2022/06/26 05:30:27;;;;;;;9.82;7.75;;;19.90;76.10;;;;;;9180261;19;20041;-70
2022/06/26 05:33:41;;;;;;;9.10;7.03;;;20.00;76.80;;;;;;9180421;19;20090;-69
2022/06/26 05:36:48;;;;;;;11.75;7.40;;;20.00;76.20;;;;;;9179851;19;20480;-69
2022/06/26 05:39:53;;;;;;;10.50;7.72;;;20.00;76.20;;;;;;9180938;19;20019;-70
2022/06/26 05:43:00;;;;;;;10.90;7.78;;;20.00;76.30;;;;;;9179385;19;20070;-69
2022/06/26 05:46:05;;;;;;;10.23;7.60;;;20.00;76.30;;;;;;9180008;19;20018;-69
2022/06/26 05:49:31;;;;;;;12.83;7.13;;;20.00;76.30;;;;;;9181999;19;20348;-70
2022/06/26 05:52:51;;;;;;;11.00;7.53;;;20.00;76.20;;;;;;9178719;19;20019;-68
2022/06/26 05:56:11;;;;;;;10.88;8.25;;;20.00;76.20;;;;;;9179115;19;20380;-69
2022/06/26 05:59:39;;;;;;;10.70;7.25;;;20.00;76.10;;;;;;9179601;19;20030;-70
2022/06/26 06:02:51;;;;;;;9.00;6.85;;;20.00;76.10;;;;;;9180009;19;20026;-69
2022/06/26 06:06:01;;;;;;;9.50;7.25;;;20.10;76.10;;;;;;9179991;19;20014;-69
2022/06/26 06:09:07;;;;;;;13.57;7.00;;;20.00;76.20;;;;;;9178998;19;20018;-70
2022/06/26 06:12:12;;;;;;;11.15;7.35;;;20.00;76.10;;;;;;9173335;19;20027;-69
2022/06/26 06:15:17;;;;;;;10.40;6.35;;;20.10;76.00;;;;;;9180211;19;20048;-68
2022/06/26 06:18:25;;;;;;;12.02;6.90;;;20.10;75.90;;;;;;9178529;19;20022;-69
2022/06/26 06:21:34;;;;;;;10.95;6.82;;;20.10;75.80;;;;;;9179412;19;20015;-68
2022/06/26 06:24:39;;;;;;;13.95;7.50;;;20.00;75.70;;;;;;9178816;19;20025;-68
2022/06/26 06:27:44;;;;;;;13.38;7.38;;;20.00;75.70;;;;;;9177685;19;20019;-69
2022/06/26 06:30:53;;;;;;;8.85;7.28;;;20.00;75.60;;;;;;9178253;19;20081;-68
2022/06/26 06:34:01;;;;;;;9.18;7.40;;;20.10;75.70;;;;;;9176543;19;20023;-69
2022/06/26 06:37:09;;;;;;;10.75;7.60;;;20.10;75.70;;;;;;9177874;19;20081;-68
2022/06/26 06:40:18;;;;;;;14.25;8.13;;;20.10;75.80;;;;;;9177708;19;20414;-69
2022/06/26 06:43:24;;;;;;;10.77;7.63;;;20.10;75.70;;;;;;9177403;19;20020;-68
2022/06/26 06:47:01;;;;;;;17.05;8.88;;;20.20;75.80;;;;;;9180016;19;20011;-69
2022/06/26 06:50:12;;;;;;;10.93;7.63;;;20.20;75.60;;;;;;9178004;19;20018;-69
2022/06/26 06:53:19;;;;;;;12.13;8.18;;;20.30;75.70;;;;;;9177222;19;20097;-71
2022/06/26 06:56:24;;;;;;;12.10;7.45;;;20.30;75.80;;;;;;9186489;19;20018;-68
2022/06/26 06:59:30;;;;;;;10.65;7.70;;;20.30;75.80;;;;;;9183921;19;20078;-72
2022/06/26 07:02:38;;;;;;;11.07;7.63;;;20.40;75.80;;;;;;9181239;19;20038;-68
2022/06/26 07:05:43;;;;;;;9.88;6.90;;;20.50;75.70;;;;;;9178633;19;20018;-69
2022/06/26 07:08:52;;;;;;;15.05;7.05;;;20.60;75.60;;;;;;9182308;19;20038;-68
2022/06/26 07:11:58;;;;;;;9.27;6.95;;;20.70;75.40;;;;;;9181383;19;20014;-69
2022/06/26 07:15:03;;;;;;;9.02;6.25;;;20.80;75.20;;;;;;9186693;19;20025;-68
2022/06/26 07:18:08;;;;;;;15.32;6.85;;;20.90;75.10;;;;;;9184730;19;20052;-68
2022/06/26 07:21:13;;;;;;;11.45;7.32;;;21.00;75.00;;;;;;9181487;19;20030;-68
2022/06/26 07:24:21;;;;;;;12.20;7.05;;;21.10;74.90;;;;;;9182071;19;20014;-68
2022/06/26 07:27:53;;;;;;;14.25;7.05;;;21.20;74.80;;;;;;9181401;19;20479;-67
2022/06/26 07:30:58;;;;;;;9.18;6.28;;;21.40;74.60;;;;;;9181518;19;20119;-70
2022/06/26 07:34:16;;;;;;;14.10;7.25;;;21.50;74.40;;;;;;9176895;19;20022;-69
2022/06/26 07:37:21;;;;;;;9.35;5.82;;;21.60;74.20;;;;;;9179863;19;20093;-69
2022/06/26 07:40:30;;;;;;;8.63;5.78;;;21.70;74.00;;;;;;9180673;19;20018;-68
2022/06/26 07:43:39;;;;;;;10.20;4.32;;;21.90;73.70;;;;;;9180635;19;20018;-67
2022/06/26 07:46:44;;;;;;;6.65;4.68;;;22.10;73.40;;;;;;9180648;19;20027;-68
2022/06/26 07:49:57;;;;;;;7.07;4.45;;;22.20;73.20;;;;;;9178569;19;20014;-68
2022/06/26 07:53:02;;;;;;;8.05;4.63;;;22.40;72.80;;;;;;9179159;19;20026;-68
2022/06/26 07:56:10;;;;;;;6.95;3.85;;;22.50;72.60;;;;;;9181543;19;20030;-68
2022/06/26 07:59:14;;;;;;;6.53;3.13;;;22.70;72.30;;;;;;9179176;19;20010;-68
2022/06/26 08:02:19;;;;;;;4.28;2.80;;;22.90;72.00;;;;;;9181339;19;20014;-68
2022/06/26 08:05:25;;;;;;;5.10;2.67;;;23.00;71.40;;;;;;9176823;19;20022;-68
2022/06/26 08:08:29;;;;;;;10.38;3.25;;;23.10;71.10;;;;;;9180278;19;20006;-68
2022/06/26 08:11:37;;;;;;;6.70;2.70;;;23.10;70.70;;;;;;9174341;19;20018;-68
2022/06/26 08:14:42;;;;;;;7.68;3.50;;;23.30;70.50;;;;;;9178187;19;20018;-68
2022/06/26 08:17:47;;;;;;;10.02;3.10;;;23.40;70.40;;;;;;9172163;19;20019;-67
2022/06/26 08:20:52;;;;;;;9.25;3.97;;;23.50;70.20;;;;;;9174752;19;20034;-69
2022/06/26 08:23:58;;;;;;;5.97;4.60;;;23.60;70.00;;;;;;9177089;19;20018;-70
2022/06/26 08:27:06;;;;;;;8.45;3.50;;;23.70;69.70;;;;;;9180157;19;20475;-68
2022/06/26 08:30:12;;;;;;;8.73;2.85;;;23.80;69.40;;;;;;9179480;19;20491;-68
2022/06/26 08:33:19;;;;;;;6.28;3.13;;;23.90;69.10;;;;;;9175590;19;20026;-72
2022/06/26 08:36:24;;;;;;;4.70;2.97;;;24.00;68.90;;;;;;9177464;19;20014;-70
2022/06/26 08:39:34;;;;;;;9.40;3.63;;;24.10;68.50;;;;;;9179638;19;20380;-67
2022/06/26 08:42:48;;;;;;;4.45;2.95;;;24.30;68.30;;;;;;9179577;19;20010;-67
2022/06/26 08:45:55;;;;;;;5.35;3.10;;;24.40;68.00;;;;;;9171758;19;20032;-67
2022/06/26 08:49:06;;;;;;;5.97;3.08;;;24.50;67.90;;;;;;9169945;19;20025;-68
2022/06/26 08:52:14;;;;;;;6.68;2.33;;;24.60;67.60;;;;;;9174069;19;20018;-68
2022/06/26 08:55:21;;;;;;;7.35;2.30;;;24.80;67.50;;;;;;9173452;19;20563;-72
2022/06/26 08:58:34;;;;;;;4.20;2.60;;;24.90;67.10;;;;;;9173092;19;20018;-75
2022/06/26 09:01:41;;;;;;;3.95;2.78;;;25.10;66.70;;;;;;9174662;19;20010;-77
2022/06/26 09:04:46;;;;;;;4.95;2.63;;;25.20;66.60;;;;;;9172034;19;20022;-73
2022/06/26 09:07:54;;;;;;;4.97;2.50;;;25.20;66.50;;;;;;9173201;19;20015;-68
2022/06/26 09:10:59;;;;;;;6.72;2.80;;;25.30;66.00;;;;;;9166646;19;20022;-68
2022/06/26 09:14:07;;;;;;;9.05;3.28;;;25.40;65.70;;;;;;9169266;19;20550;-70
2022/06/26 09:17:13;;;;;;;5.00;2.58;;;25.50;65.30;;;;;;9172451;19;20010;-70
2022/06/26 09:20:26;;;;;;;8.60;3.17;;;25.50;65.30;;;;;;9170808;19;20380;-68
2022/06/26 09:23:55;;;;;;;6.22;2.63;;;25.60;65.10;;;;;;9172341;19;20010;-69
2022/06/26 09:27:21;;;;;;;4.72;2.70;;;25.70;64.60;;;;;;9181058;19;20019;-71
2022/06/26 09:30:29;;;;;;;5.78;2.63;;;25.80;64.20;;;;;;9180473;19;20030;-71
2022/06/26 09:33:38;;;;;;;4.53;2.63;;;25.90;64.30;;;;;;9179703;19;20022;-70
2022/06/26 09:36:43;;;;;;;8.52;3.15;;;25.90;64.00;;;;;;9175506;19;20014;-72
2022/06/26 09:39:49;;;;;;;4.57;2.80;;;26.00;63.80;;;;;;9178857;19;20021;-70
2022/06/26 09:42:54;;;;;;;9.15;3.20;;;26.00;63.50;;;;;;9180453;19;20014;-71
2022/06/26 09:46:04;;;;;;;3.58;2.65;;;26.10;63.40;;;;;;9181639;19;20086;-72
2022/06/26 09:49:10;;;;;;;5.95;2.83;;;26.10;63.10;;;;;;9182126;19;20352;-72
2022/06/26 09:52:16;;;;;;;4.53;2.47;;;26.20;63.00;;;;;;9180365;19;20033;-71
2022/06/26 09:55:21;;;;;;;3.80;2.20;;;26.20;62.80;;;;;;9178889;19;20014;-72
2022/06/26 09:58:27;;;;;;;4.65;2.13;;;26.20;63.30;;;;;;9180418;19;20018;-73
2022/06/26 10:08:26;;;;;;;3.78;2.20;;;26.10;62.00;;;;;;9180615;19;20011;-71
2022/06/26 10:11:33;;;;;;;4.75;2.25;;;26.10;62.00;;;;;;9176943;19;20021;-70
2022/06/26 10:14:43;;;;;;;4.43;2.45;;;26.10;61.80;;;;;;9178350;19;20010;-72
2022/06/26 10:18:11;;;;;;;7.25;3.50;;;26.00;61.60;;;;;;9179397;19;20034;-72
2022/06/26 10:21:16;;;;;;;14.57;9.63;;;26.00;61.30;;;;;;9179854;19;20015;-70
2022/06/26 10:24:21;;;;;;;8.10;4.53;;;26.00;61.40;;;;;;9176536;19;20019;-73
2022/06/26 10:27:28;;;;;;;9.15;3.00;;;26.00;61.40;;;;;;9172999;19;20027;-73
2022/06/26 10:30:40;;;;;;;6.68;2.20;;;25.90;61.10;;;;;;9166796;19;20359;-70
2022/06/26 10:33:52;;;;;;;4.07;2.20;;;25.90;61.10;;;;;;9169399;19;20380;-70
2022/06/26 10:37:03;;;;;;;5.63;2.22;;;25.90;60.60;;;;;;9168611;19;20022;-70
2022/06/26 10:42:52;;;;;;;4.70;2.63;;;25.80;60.60;;;;;;9169057;19;20467;-70
2022/06/26 10:43:49;;;;;;;5.20;2.08;;;25.80;60.50;;;;;;9167810;19;20022;-72
2022/06/26 10:46:58;;;;;;;3.75;2.08;;;25.80;60.50;;;;;;9167952;19;20380;-69
2022/06/26 10:50:06;;;;;;;4.78;2.22;;;25.70;60.60;;;;;;9169133;19;20018;-71
2022/06/26 10:53:17;;;;;;;9.52;2.88;;;25.70;60.30;;;;;;9170061;19;20026;-73
2022/06/26 10:56:22;;;;;;;7.65;2.75;;;25.70;60.20;;;;;;9169662;19;20086;-73
2022/06/26 10:59:32;;;;;;;5.78;2.17;;;25.70;61.00;;;;;;9170409;19;20090;-71
2022/06/26 11:02:39;;;;;;;6.60;2.30;;;25.70;60.30;;;;;;9168992;19;20021;-72
2022/06/26 11:05:56;;;;;;;4.38;2.35;;;25.70;60.20;;;;;;9164895;19;20015;-71
2022/06/26 11:09:02;;;;;;;6.60;2.15;;;25.70;60.00;;;;;;9169100;19;20428;-72
2022/06/26 11:12:08;;;;;;;3.45;1.80;;;25.70;60.20;;;;;;9165212;19;20506;-72
2022/06/26 11:15:27;;;;;;;4.53;2.45;;;25.80;60.20;;;;;;9166183;19;20014;-71
2022/06/26 11:18:36;;;;;;;4.90;2.22;;;25.80;59.80;;;;;;9169030;19;20019;-72
2022/06/26 11:21:44;;;;;;;9.13;2.50;;;25.90;59.90;;;;;;9169016;19;20015;-72
2022/06/26 11:24:52;;;;;;;6.18;2.75;;;26.00;59.70;;;;;;9167145;19;20099;-70
2022/06/26 11:28:12;;;;;;;4.60;2.25;;;26.00;59.70;;;;;;9170380;19;20542;-71
2022/06/26 11:31:23;;;;;;;5.45;2.33;;;26.00;59.50;;;;;;9172076;19;20032;-71
2022/06/26 11:34:28;;;;;;;6.03;2.28;;;26.10;59.20;;;;;;9173856;19;20033;-70
2022/06/26 11:37:38;;;;;;;6.35;2.30;;;26.10;59.30;;;;;;9179018;19;20474;-72
2022/06/26 11:40:47;;;;;;;8.38;2.53;;;26.20;59.70;;;;;;9180550;19;20029;-73
2022/06/26 11:43:54;;;;;;;6.07;2.10;;;26.20;58.90;;;;;;9176521;19;20021;-68
2022/06/26 11:46:59;;;;;;;6.25;2.35;;;26.20;58.70;;;;;;9178998;19;20372;-73
2022/06/26 11:50:07;;;;;;;4.63;1.98;;;26.30;58.60;;;;;;9179175;19;20026;-73
2022/06/26 11:53:20;;;;;;;4.47;1.85;;;26.30;58.50;;;;;;9178400;19;20018;-72
2022/06/26 11:56:27;;;;;;;3.92;2.10;;;26.30;58.20;;;;;;9176093;19;20022;-74
2022/06/26 11:59:32;;;;;;;4.15;1.88;;;26.30;58.30;;;;;;9181320;19;20033;-71
2022/06/26 12:02:44;;;;;;;9.10;2.38;;;26.30;58.20;;;;;;9182272;19;20019;-73
2022/06/26 12:05:49;;;;;;;2.90;1.95;;;26.30;58.00;;;;;;9177684;19;20492;-70
2022/06/26 12:08:57;;;;;;;8.15;1.50;;;26.20;58.00;;;;;;9179684;19;20037;-74
2022/06/26 12:12:02;;;;;;;4.18;2.10;;;26.20;58.00;;;;;;9175296;19;20029;-73
2022/06/26 12:15:18;;;;;;;5.05;1.75;;;26.20;58.00;;;;;;9178542;19;20042;-75
2022/06/26 12:18:23;;;;;;;3.72;1.60;;;26.20;57.80;;;;;;9177278;19;20021;-76
2022/06/26 12:21:28;;;;;;;4.68;1.67;;;26.20;58.00;;;;;;9181288;19;20011;-71
2022/06/26 12:24:35;;;;;;;4.35;1.80;;;26.20;57.90;;;;;;9178582;19;20018;-72
2022/06/26 12:27:42;;;;;;;3.85;1.75;;;26.10;57.70;;;;;;9176496;19;20018;-70
2022/06/26 12:30:48;;;;;;;4.40;1.80;;;26.10;57.60;;;;;;9175435;19;20019;-70
2022/06/26 12:33:53;;;;;;;4.43;1.55;;;26.10;57.80;;;;;;9172659;19;20033;-70
2022/06/26 12:36:58;;;;;;;5.00;1.70;;;26.00;57.60;;;;;;9173240;19;20023;-68
2022/06/26 12:40:13;;;;;;;4.03;1.77;;;26.00;57.50;;;;;;9177429;19;20011;-71
2022/06/26 12:43:18;;;;;;;6.35;1.70;;;26.00;57.50;;;;;;9176983;19;20014;-71
2022/06/26 12:46:23;;;;;;;7.35;1.70;;;25.90;57.50;;;;;;9178429;19;20018;-69
2022/06/26 12:49:29;;;;;;;4.75;1.60;;;25.90;57.50;;;;;;9174337;19;20025;-68
2022/06/26 12:52:34;;;;;;;4.60;1.50;;;25.80;57.50;;;;;;9173998;19;20568;-69
2022/06/26 12:55:43;;;;;;;9.75;1.95;;;25.80;57.50;;;;;;9172438;19;20015;-69
2022/06/26 12:58:48;;;;;;;3.72;1.45;;;25.70;57.40;;;;;;9170068;19;20026;-68
2022/06/26 13:01:53;;;;;;;6.00;1.65;;;25.70;57.70;;;;;;9173454;19;20022;-72
2022/06/26 13:04:58;;;;;;;6.00;1.73;;;25.60;57.70;;;;;;9171083;19;20783;-69
2022/06/26 13:08:07;;;;;;;2.42;1.65;;;25.60;57.80;;;;;;9168145;19;20743;-69
2022/06/26 13:11:27;;;;;;;5.70;1.80;;;25.50;57.80;;;;;;9167849;19;20530;-68
2022/06/26 13:14:33;;;;;;;4.55;1.65;;;25.40;57.90;;;;;;9170799;19;20014;-70
2022/06/26 13:17:38;;;;;;;5.10;1.88;;;25.30;57.90;;;;;;9170665;19;20014;-69
2022/06/26 13:20:43;;;;;;;4.78;1.67;;;25.30;58.00;;;;;;9171218;19;20015;-69
2022/06/26 13:23:49;;;;;;;3.13;1.60;;;25.20;58.00;;;;;;9170060;19;20849;-70
2022/06/26 13:26:56;;;;;;;5.93;1.77;;;25.20;58.10;;;;;;9168218;19;20026;-71
2022/06/26 13:30:01;;;;;;;3.90;1.75;;;25.10;58.00;;;;;;9172400;19;20014;-69
2022/06/26 13:33:07;;;;;;;3.95;1.42;;;25.10;58.20;;;;;;9170589;19;20018;-72
2022/06/26 13:36:12;;;;;;;5.80;1.92;;;25.00;58.40;;;;;;9169361;19;20032;-70
2022/06/26 13:39:18;;;;;;;3.60;1.50;;;25.00;58.60;;;;;;9176856;19;20377;-71
2022/06/26 13:42:25;;;;;;;3.53;1.45;;;25.00;58.60;;;;;;9171682;19;20022;-70
2022/06/26 13:45:30;;;;;;;6.80;1.63;;;24.90;58.60;;;;;;9170494;19;20487;-69
2022/06/26 13:48:36;;;;;;;3.80;1.70;;;24.80;58.60;;;;;;9166343;19;20041;-71
2022/06/26 13:51:41;;;;;;;4.03;1.50;;;24.80;59.30;;;;;;9167266;19;20542;-72
2022/06/26 13:54:46;;;;;;;3.40;1.83;;;24.70;58.60;;;;;;9164756;19;20402;-72
2022/06/26 13:57:57;;;;;;;4.93;2.10;;;24.70;58.70;;;;;;9169634;19;20025;-69
2022/06/26 14:01:02;;;;;;;5.22;1.92;;;24.60;58.60;;;;;;9170025;19;20018;-70
2022/06/26 14:04:07;;;;;;;5.35;1.90;;;24.60;58.70;;;;;;9168188;19;20396;-68
2022/06/26 14:07:12;;;;;;;5.95;1.70;;;24.50;58.70;;;;;;9168302;19;20014;-68
2022/06/26 14:10:17;;;;;;;5.43;1.83;;;24.50;58.70;;;;;;9171192;19;20022;-68
2022/06/26 14:13:25;;;;;;;3.53;1.70;;;24.50;58.70;;;;;;9170397;19;20022;-68
2022/06/26 14:16:30;;;;;;;3.92;1.88;;;24.50;58.70;;;;;;9170458;19;20022;-70
2022/06/26 14:19:35;;;;;;;4.68;2.05;;;24.50;58.80;;;;;;9170653;19;20014;-72
2022/06/26 14:25:59;;;;;;;4.18;1.90;;;24.50;58.80;;;;;;9165218;19;20037;-69
2022/06/26 14:29:07;;;;;;;4.20;1.60;;;24.60;58.90;;;;;;9164742;19;20018;-68
2022/06/26 14:32:12;;;;;;;6.72;2.30;;;24.50;58.80;;;;;;9165796;19;20022;-68
2022/06/26 14:35:17;;;;;;;3.25;1.70;;;24.50;58.80;;;;;;9165657;19;20637;-69
2022/06/26 14:38:22;;;;;;;5.22;2.05;;;24.60;58.80;;;;;;9163904;19;20661;-70
2022/06/26 14:41:27;;;;;;;9.02;2.58;;;24.60;58.80;;;;;;9161677;19;20026;-70
2022/06/26 14:44:36;;;;;;;5.65;1.70;;;24.60;58.80;;;;;;9161359;19;20014;-68
2022/06/26 14:47:41;;;;;;;5.43;2.22;;;24.60;58.80;;;;;;9164953;19;20022;-70
2022/06/26 14:50:46;;;;;;;3.60;2.17;;;24.60;58.80;;;;;;9164490;19;20373;-68
2022/06/26 14:53:51;;;;;;;7.07;2.22;;;24.60;58.90;;;;;;9162948;19;20043;-69
2022/06/26 14:56:59;;;;;;;6.20;2.47;;;24.50;58.90;;;;;;9161500;19;20026;-70
2022/06/26 15:00:08;;;;;;;9.48;2.38;;;24.50;59.00;;;;;;9161618;19;20022;-68
2022/06/26 15:03:13;;;;;;;4.55;1.80;;;24.50;59.00;;;;;;9164053;19;20019;-68
2022/06/26 15:06:18;;;;;;;5.75;2.10;;;24.50;59.10;;;;;;9161258;19;20029;-68
2022/06/26 15:09:23;;;;;;;4.90;2.10;;;24.40;59.20;;;;;;9164524;19;20019;-67
2022/06/26 15:12:29;;;;;;;8.25;2.40;;;24.40;59.20;;;;;;9160316;19;20676;-69
2022/06/26 15:15:36;;;;;;;4.38;1.80;;;24.40;59.20;;;;;;9167041;19;20018;-69
2022/06/26 15:18:41;;;;;;;5.50;2.25;;;24.30;59.30;;;;;;9171497;19;20027;-70
2022/06/26 15:21:47;;;;;;;7.15;2.10;;;24.30;59.40;;;;;;9172846;19;20018;-69
2022/06/26 15:24:52;;;;;;;6.68;2.95;;;24.30;59.40;;;;;;9171059;19;20703;-69
2022/06/26 15:27:58;;;;;;;3.70;2.10;;;24.20;59.40;;;;;;9170525;19;20363;-69
2022/06/26 15:31:05;;;;;;;11.02;3.05;;;24.20;59.60;;;;;;9171112;19;20018;-69
2022/06/26 15:34:10;;;;;;;6.40;2.17;;;24.10;59.60;;;;;;9171939;19;20025;-69
2022/06/26 15:37:18;;;;;;;9.93;2.33;;;24.10;59.70;;;;;;9170742;19;20014;-69
2022/06/26 15:40:23;;;;;;;5.57;2.42;;;24.00;59.70;;;;;;9171201;19;20015;-70
2022/06/26 15:43:28;;;;;;;4.85;2.25;;;24.00;59.80;;;;;;9168781;19;20019;-69
2022/06/26 15:46:36;;;;;;;4.03;2.47;;;23.90;59.80;;;;;;9172900;19;20014;-70
2022/06/26 15:49:41;;;;;;;4.22;2.08;;;23.90;59.90;;;;;;9169191;19;20014;-69
2022/06/26 15:52:46;;;;;;;5.85;2.17;;;23.90;59.90;;;;;;9170878;19;20025;-69
2022/06/26 15:55:51;;;;;;;6.95;2.63;;;23.90;60.10;;;;;;9173360;19;20022;-69
2022/06/26 15:58:59;;;;;;;5.95;2.40;;;23.90;60.20;;;;;;9170493;19;20018;-68
2022/06/26 16:02:07;;;;;;;3.67;2.10;;;23.80;60.20;;;;;;9172211;19;20026;-68
2022/06/26 16:05:12;;;;;;;5.20;2.08;;;23.80;60.30;;;;;;9167433;19;20018;-68
2022/06/26 16:08:17;;;;;;;4.32;2.22;;;23.70;60.40;;;;;;9167659;19;20026;-70
2022/06/26 16:11:23;;;;;;;7.45;2.30;;;23.70;60.60;;;;;;9168882;19;20048;-69
2022/06/26 16:14:28;;;;;;;4.68;2.25;;;23.60;60.60;;;;;;9169668;19;20034;-71
2022/06/26 16:17:35;;;;;;;8.60;2.00;;;23.60;60.80;;;;;;9169153;19;20032;-72
2022/06/26 16:20:41;;;;;;;6.78;2.25;;;23.60;60.90;;;;;;9170448;19;20052;-71